Huvudsida
METAR-TAF:

METAR-TAF

Flygplatser :

Port Vila, Efate, Vanuatu

latitud: 17-42S, longitud: 168-18E, höjd: 20 m

Aktuellt väderrapport

Denna rapport gjordes för 57 minuter sedan, klockan 09:00 UTC
Vind 3 kt från nord/nordost
Temperatur 23°C
Fuktighet 94%
Tryck 1014 hPa
Sikt 10 km eller mer
Brutna moln på en höjd av 2000 ft
Mulet på en höjd av 4000 ft

METAR: NVVV 270900Z 02003KT 9999 BKN020 OVC040 23/22 Q1014

Tid: 20:57 (09:57 UTC)

Väderprognos

Denna rapport gjordes för 5 timmar och 27 minuter sedan, klockan 04:30 UTC
Prognos gäller från 27 kl. 06 UTC till 28 kl. 06 UTC
Vind 6 kt från ost/sydost
Sikt: 9000 m
Spridda moln på en höjd av 2000 ft
Brutna moln på en höjd av 4000 ft
Brutna moln på en höjd av 1800 ft
lätta regnskurar

TAF: NVVV 270430Z 2706/2806 11006KT 9999 SCT020 BKN040 INTER 2706/2712 9000 -SHRA BKN018

Aktuella väderrapporter och prognoser från 4000 flygplatser (METAR- och TAF-rapporter).

De tillgängliga stationerna syns som gula och röda prickar på kartan.

För musen över prickarna för att se namnen på stationerna.

Klicka sedan för att få väderrapporter och prognoser.

För att ändra kartan: Klicka på de gröna knapparna med ett svart kors på för att zooma in; den gröna knappen med ett streck på för att zooma ut; eller på de gröna pilarna för angränsande kartor.


METAR-TAF: